LIRP/PSA METAR and TAF weather

Enter ICAO airport designator
Station Type Date Time Source
LIRP METAR 2024/04/15 09:45 UTC NOAA

LIRP 150945Z VRB02KT CAVOK 19/13 Q1018 NOSIG


Station Type Date Time Source
LIRP Decoded METAR 2024/04/15 09:45 UTC NOAA

Pisa / S. Giusto, Italy (LIRP) 43-41N 010-23E 6M
Apr 15, 2024 - 05:45 AM EDT / 2024.04.15 0945 UTC
Wind: Variable at 2 MPH (2 KT):0
Visibility: greater than 7 mile(s):0
Temperature: 66 F (19 C)
Dew Point: 55 F (13 C)
Relative Humidity: 68%
Pressure (altimeter): 30.06 in. Hg (1018 hPa)
ob: LIRP 150945Z VRB02KT CAVOK 19/13 Q1018 NOSIG
cycle: 10

Station Type Date Time Source
LIRP TAF 2024/04/15 06:25 UTC NOAA